createdAt,value
2022-12-12T00:01:55.670Z,11.25
2022-12-12T00:05:57.077Z,11.88
2022-12-12T00:09:58.556Z,12.48
2022-12-12T00:14:00.127Z,9.93
2022-12-12T00:18:01.560Z,11.35
2022-12-12T00:22:02.985Z,11.73
2022-12-12T00:26:08.874Z,11.20
2022-12-12T00:30:10.847Z,6.82
2022-12-12T00:34:12.264Z,7.68
2022-12-12T00:38:13.725Z,5.70
2022-12-12T00:42:15.429Z,12.75
2022-12-12T00:46:21.062Z,11.98
2022-12-12T00:50:22.650Z,10.23
2022-12-12T00:54:24.129Z,6.80
2022-12-12T00:58:26.273Z,9.40
2022-12-12T01:02:28.422Z,10.38
2022-12-12T01:06:30.392Z,6.22
2022-12-12T01:10:31.996Z,5.57
2022-12-12T01:14:33.421Z,2.88
2022-12-12T01:18:35.619Z,12.32
2022-12-12T01:22:37.368Z,11.38
2022-12-12T01:26:38.840Z,12.15
2022-12-12T01:30:40.350Z,11.85
2022-12-12T01:34:41.788Z,12.23
2022-12-12T01:38:47.960Z,12.48
2022-12-12T01:42:50.501Z,12.98
2022-12-12T01:46:52.057Z,11.93
2022-12-12T01:50:54.881Z,13.52
2022-12-12T01:55:02.525Z,10.85
2022-12-12T01:59:07.330Z,12.45
2022-12-12T02:03:09.232Z,12.38
2022-12-12T02:07:10.690Z,12.10
2022-12-12T02:11:13.046Z,14.63
2022-12-12T02:15:14.715Z,13.43
2022-12-12T02:19:55.831Z,11.52
2022-12-12T02:24:30.065Z,10.82
2022-12-12T02:28:53.140Z,12.90
2022-12-12T02:33:04.434Z,13.57
2022-12-12T02:37:29.188Z,11.05
2022-12-12T02:41:43.289Z,11.98
2022-12-12T02:45:57.933Z,11.90
2022-12-12T02:50:10.212Z,11.02
2022-12-12T02:54:17.287Z,13.65
2022-12-12T02:58:19.857Z,11.05
2022-12-12T03:02:30.241Z,12.98
2022-12-12T03:07:02.566Z,11.93
2022-12-12T03:11:10.851Z,12.55
2022-12-12T03:15:38.255Z,12.80
2022-12-12T03:19:56.384Z,12.10
2022-12-12T03:24:08.316Z,11.07
2022-12-12T03:28:29.995Z,12.40
2022-12-12T03:32:58.518Z,13.13
2022-12-12T03:37:22.176Z,12.43
2022-12-12T03:41:30.953Z,12.38
2022-12-12T03:45:51.881Z,11.27
2022-12-12T03:50:02.168Z,12.98
2022-12-12T03:54:11.231Z,12.77
2022-12-12T03:58:37.511Z,12.53
2022-12-12T04:02:44.727Z,12.00
2022-12-12T04:06:54.148Z,13.43
2022-12-12T04:11:42.410Z,13.93
2022-12-12T04:15:56.757Z,13.38
2022-12-12T04:20:30.677Z,12.35
2022-12-12T04:24:47.132Z,11.65
2022-12-12T04:29:15.397Z,14.07
2022-12-12T04:33:22.880Z,10.65
2022-12-12T04:37:29.266Z,10.55
2022-12-12T04:41:35.036Z,12.40
2022-12-12T04:45:44.088Z,12.68
2022-12-12T04:49:49.838Z,11.27
2022-12-12T04:53:58.200Z,11.82
2022-12-12T04:58:00.112Z,12.25
2022-12-12T05:02:14.694Z,10.63
2022-12-12T05:06:20.119Z,11.50
2022-12-12T05:10:21.957Z,9.88
2022-12-12T05:14:23.414Z,10.13
2022-12-12T05:18:24.872Z,12.10
2022-12-12T05:22:26.368Z,11.52
2022-12-12T05:26:31.323Z,11.18
2022-12-12T05:30:33.254Z,11.65
2022-12-12T05:34:34.753Z,9.48
2022-12-12T05:38:36.407Z,10.52
2022-12-12T05:42:37.986Z,9.77
2022-12-12T05:46:40.617Z,9.70
2022-12-12T05:50:42.072Z,9.82
2022-12-12T05:54:43.482Z,7.35
2022-12-12T05:58:44.885Z,9.27
2022-12-12T06:02:46.317Z,7.35
2022-12-12T06:06:47.972Z,8.95
2022-12-12T06:10:49.434Z,6.75
2022-12-12T06:14:50.872Z,7.13
2022-12-12T06:18:53.995Z,5.45
2022-12-12T06:22:55.374Z,5.78
2022-12-12T06:26:56.816Z,5.05
2022-12-12T06:30:58.318Z,5.90
2022-12-12T06:34:59.744Z,5.75
2022-12-12T06:39:01.826Z,6.53
2022-12-12T06:43:03.276Z,6.38
2022-12-12T06:47:04.711Z,6.15
2022-12-12T06:51:08.416Z,6.03
2022-12-12T06:55:10.054Z,6.43
2022-12-12T06:59:12.576Z,6.05
2022-12-12T07:03:14.063Z,5.63
2022-12-12T07:07:15.518Z,6.90
2022-12-12T07:11:20.596Z,5.50
2022-12-12T07:15:22.088Z,5.63
2022-12-12T07:19:23.619Z,5.47
2022-12-12T07:23:25.084Z,5.57
2022-12-12T07:27:26.517Z,5.65
2022-12-12T07:31:28.926Z,6.20
2022-12-12T07:35:30.466Z,4.97
2022-12-12T07:39:32.604Z,6.20
2022-12-12T07:43:43.336Z,6.10
2022-12-12T07:47:46.485Z,6.30
2022-12-12T07:51:49.460Z,5.95
2022-12-12T07:55:51.024Z,5.53
2022-12-12T07:59:52.842Z,6.78
2022-12-12T08:03:54.755Z,6.68
2022-12-12T08:07:56.260Z,7.40
2022-12-12T08:11:58.983Z,5.80
2022-12-12T08:16:00.647Z,5.95
2022-12-12T08:20:02.252Z,5.75
2022-12-12T08:24:03.857Z,5.78
2022-12-12T08:28:05.374Z,5.18
2022-12-12T08:32:07.235Z,5.85
2022-12-12T08:36:18.114Z,6.05
2022-12-12T08:40:19.574Z,5.82
2022-12-12T08:44:21.784Z,5.47
2022-12-12T08:48:23.213Z,7.00
2022-12-12T08:52:24.659Z,5.25
2022-12-12T08:56:26.445Z,5.82
2022-12-12T09:00:27.903Z,5.90
2022-12-12T09:04:29.321Z,5.72
2022-12-12T09:08:30.876Z,5.18
2022-12-12T09:12:35.705Z,6.03
2022-12-12T09:16:41.531Z,6.00
2022-12-12T09:20:43.120Z,4.68
2022-12-12T09:24:44.606Z,5.53
2022-12-12T09:28:46.239Z,4.18
2022-12-12T09:32:47.736Z,4.82
2022-12-12T09:36:49.152Z,5.03
2022-12-12T09:40:57.445Z,4.80
2022-12-12T09:45:03.985Z,5.25
2022-12-12T09:49:15.867Z,5.18
2022-12-12T09:53:21.648Z,4.47
2022-12-12T09:57:39.633Z,4.95
2022-12-12T10:01:56.813Z,4.68
2022-12-12T10:10:39.794Z,3.55
2022-12-12T10:14:47.839Z,3.47
2022-12-12T10:18:53.009Z,4.15
2022-12-12T10:23:31.925Z,3.78
2022-12-12T10:27:33.475Z,4.15
2022-12-12T10:31:55.951Z,4.85
2022-12-12T10:36:18.550Z,4.45
2022-12-12T10:40:19.949Z,3.63
2022-12-12T10:44:51.526Z,4.40
2022-12-12T10:48:54.069Z,4.45
2022-12-12T10:52:55.525Z,4.25
2022-12-12T10:57:20.359Z,4.07
2022-12-12T11:01:52.456Z,4.93
2022-12-12T11:05:48.041Z,4.53
2022-12-12T11:09:49.460Z,4.25
2022-12-12T11:13:55.576Z,3.88
2022-12-12T11:18:02.734Z,4.00
2022-12-12T11:22:07.600Z,4.72
2022-12-12T11:26:15.610Z,4.53
2022-12-12T11:30:32.530Z,4.05
2022-12-12T11:34:38.410Z,3.50
2022-12-12T11:38:45.903Z,3.80
2022-12-12T11:42:47.417Z,5.28
2022-12-12T11:46:48.880Z,4.65
2022-12-12T11:50:50.286Z,4.05
2022-12-12T11:54:53.342Z,4.07
2022-12-12T11:59:02.339Z,3.88
2022-12-12T12:03:15.028Z,2.13
2022-12-12T12:07:54.322Z,4.22
2022-12-12T12:12:16.040Z,5.63
2022-12-12T12:17:07.855Z,4.95
2022-12-12T12:21:30.911Z,4.60
2022-12-12T12:26:02.866Z,5.38
2022-12-12T12:30:17.267Z,5.65
2022-12-12T12:34:35.848Z,5.50
2022-12-12T12:38:58.688Z,6.32
2022-12-12T12:43:24.730Z,5.68
2022-12-12T12:47:47.398Z,5.70
2022-12-12T12:52:12.788Z,4.72
2022-12-12T12:56:26.332Z,3.90
2022-12-12T13:00:30.650Z,3.80
2022-12-12T13:04:41.488Z,4.57
2022-12-12T13:09:06.906Z,5.18
2022-12-12T13:13:29.374Z,4.55
2022-12-12T13:17:45.967Z,3.45
2022-12-12T13:22:02.387Z,4.22
2022-12-12T13:26:15.554Z,3.78
2022-12-12T13:30:29.713Z,4.00
2022-12-12T13:34:38.320Z,3.30
2022-12-12T13:38:40.670Z,5.07
2022-12-12T13:43:07.212Z,5.18
2022-12-12T13:47:30.282Z,5.03
2022-12-12T13:51:37.131Z,4.85
2022-12-12T13:55:38.601Z,4.50
2022-12-12T13:59:58.022Z,3.72
2022-12-12T14:04:00.584Z,5.13
2022-12-12T14:08:07.082Z,5.38
2022-12-12T14:12:17.902Z,4.30
2022-12-12T14:16:29.877Z,3.95
2022-12-12T14:20:33.116Z,5.65
2022-12-12T14:24:34.768Z,4.95
2022-12-12T14:28:36.427Z,6.30
2022-12-12T14:33:03.060Z,6.90
2022-12-12T14:37:45.800Z,5.88
2022-12-12T14:41:50.526Z,6.43
2022-12-12T14:45:54.998Z,7.72
2022-12-12T14:50:10.917Z,6.78
2022-12-12T14:54:19.755Z,7.75
2022-12-12T14:58:26.299Z,7.22
2022-12-12T15:02:38.739Z,5.22
2022-12-12T15:06:45.489Z,6.75
2022-12-12T15:10:58.603Z,5.15
2022-12-12T15:15:01.287Z,4.90
2022-12-12T15:19:03.456Z,5.00
2022-12-12T15:23:07.326Z,5.82
2022-12-12T15:27:18.881Z,6.15
2022-12-12T15:31:20.716Z,6.95
2022-12-12T15:35:23.212Z,8.23
2022-12-12T15:39:24.849Z,6.32
2022-12-12T15:43:28.938Z,7.20
2022-12-12T15:47:30.629Z,7.72
2022-12-12T15:51:32.389Z,6.63
2022-12-12T15:55:35.046Z,6.38
2022-12-12T15:59:36.575Z,7.20
2022-12-12T16:03:38.139Z,6.13
2022-12-12T16:07:40.729Z,5.53
2022-12-12T16:11:42.306Z,5.53
2022-12-12T16:15:43.829Z,6.88
2022-12-12T16:19:54.000Z,5.75
2022-12-12T16:24:09.788Z,5.97
2022-12-12T16:28:23.268Z,5.55
2022-12-12T16:32:26.671Z,7.60
2022-12-12T16:36:28.112Z,6.70
2022-12-12T16:40:29.585Z,5.95
2022-12-12T16:44:31.203Z,5.93
2022-12-12T16:48:35.328Z,5.85
2022-12-12T16:52:36.893Z,3.78
2022-12-12T16:56:38.396Z,4.82
2022-12-12T17:00:40.060Z,6.63
2022-12-12T17:04:41.533Z,4.15
2022-12-12T17:08:42.987Z,6.80
2022-12-12T17:12:44.906Z,6.43
2022-12-12T17:16:46.459Z,5.68
2022-12-12T17:20:48.190Z,5.53
2022-12-12T17:24:52.039Z,7.28
2022-12-12T17:28:53.485Z,7.07
2022-12-12T17:37:14.326Z,5.97
2022-12-12T17:41:18.452Z,5.50
2022-12-12T17:45:20.150Z,3.88
2022-12-12T17:49:21.835Z,5.40
2022-12-12T17:53:23.247Z,6.53
2022-12-12T17:57:25.574Z,4.47
2022-12-12T18:01:29.478Z,2.85
2022-12-12T18:05:31.946Z,5.78
2022-12-12T18:09:33.544Z,4.88
2022-12-12T18:13:36.049Z,5.10
2022-12-12T18:17:37.691Z,4.50
2022-12-12T18:26:09.937Z,4.50
2022-12-12T18:30:12.187Z,4.03
2022-12-12T18:34:14.457Z,6.45
2022-12-12T18:38:16.771Z,6.13
2022-12-12T18:42:18.336Z,5.15
2022-12-12T18:46:22.275Z,6.88
2022-12-12T18:50:23.862Z,6.07
2022-12-12T18:54:25.379Z,3.58
2022-12-12T18:58:26.862Z,6.88
2022-12-12T19:02:28.385Z,7.10
2022-12-12T19:06:35.366Z,5.50
2022-12-12T19:10:38.345Z,6.95
2022-12-12T19:15:08.200Z,5.95
2022-12-12T19:19:05.006Z,6.20
2022-12-12T19:23:06.472Z,6.82
2022-12-12T19:27:08.047Z,6.43
2022-12-12T19:31:15.812Z,4.35
2022-12-12T19:35:17.525Z,6.80
2022-12-12T19:39:18.970Z,6.97
2022-12-12T19:43:20.462Z,7.05
2022-12-12T19:47:22.085Z,6.22
2022-12-12T19:51:25.613Z,9.27
2022-12-12T19:55:27.056Z,6.93
2022-12-12T19:59:28.572Z,7.30
2022-12-12T20:03:30.025Z,7.53
2022-12-12T20:07:31.513Z,5.20
2022-12-12T20:11:36.741Z,4.20
2022-12-12T20:15:52.060Z,7.95
2022-12-12T20:19:53.568Z,8.60
2022-12-12T20:24:04.277Z,8.90
2022-12-12T20:28:05.762Z,8.63
2022-12-12T20:32:14.883Z,6.63
2022-12-12T20:36:21.704Z,4.90
2022-12-12T20:40:29.747Z,9.05
2022-12-12T20:44:31.207Z,8.40
2022-12-12T20:48:32.710Z,10.70
2022-12-12T20:52:35.694Z,11.65
2022-12-12T20:56:45.940Z,12.00
2022-12-12T21:00:51.403Z,13.00
2022-12-12T21:04:54.169Z,11.07
2022-12-12T21:08:56.103Z,12.00
2022-12-12T21:12:57.731Z,4.22
2022-12-12T21:17:07.800Z,12.07
2022-12-12T21:21:16.981Z,12.23
2022-12-12T21:25:18.776Z,8.52
2022-12-12T21:29:20.358Z,7.10
2022-12-12T21:33:22.196Z,10.70
2022-12-12T21:37:23.600Z,10.45
2022-12-12T21:41:28.752Z,10.15
2022-12-12T21:45:30.336Z,6.63
2022-12-12T21:49:33.876Z,7.97
2022-12-12T21:53:35.724Z,6.40
2022-12-12T21:57:37.187Z,7.50
2022-12-12T22:01:42.266Z,6.05
2022-12-12T22:05:51.095Z,7.68
2022-12-12T22:09:57.703Z,5.80
2022-12-12T22:14:11.652Z,5.07
2022-12-12T22:18:13.158Z,7.85
2022-12-12T22:22:15.196Z,8.18
2022-12-12T22:26:17.958Z,6.35
2022-12-12T22:30:27.596Z,7.75
2022-12-12T22:34:29.058Z,8.27
2022-12-12T22:38:34.739Z,8.10
2022-12-12T22:42:39.265Z,5.70
2022-12-12T22:46:44.072Z,2.35
2022-12-12T22:50:46.008Z,3.42
2022-12-12T22:54:47.524Z,6.60
2022-12-12T22:58:49.010Z,2.15
2022-12-12T23:02:50.458Z,5.00
2022-12-12T23:06:51.927Z,3.25
2022-12-12T23:10:53.353Z,5.22
2022-12-12T23:14:54.834Z,1.55
2022-12-12T23:18:58.322Z,4.55
2022-12-12T23:22:59.732Z,4.47
2022-12-12T23:27:01.463Z,5.28
2022-12-12T23:31:08.404Z,6.20
2022-12-12T23:35:09.998Z,5.53
2022-12-12T23:39:12.501Z,7.07
2022-12-12T23:43:13.944Z,7.80
2022-12-12T23:47:15.366Z,6.15
2022-12-12T23:51:16.861Z,8.60
2022-12-12T23:55:18.284Z,8.65
2022-12-12T23:59:21.286Z,7.70
